Time;durP1;ratioP1;P1;durP2;ratioP2;P2;SDS_P1;SDS_P2;PMS_P1;PMS_P2;Temp;Humidity;BMP_temperature;BMP_pressure;BME280_temperature;BME280_humidity;BME280_pressure;Samples;Min_cycle;Max_cycle;Signal;HPM_P1;HPM_P2
2022/10/14 00:01:11;;;;;;;33.17;14.75;;;;;;;;;;2082844;28;20486;-75
2022/10/14 00:02:30;;;;;;;31.95;14.35;;;;;;;;;;2086305;28;20418;-72
2022/10/14 00:03:49;;;;;;;34.08;15.63;;;;;;;;;;2082107;28;20045;-73
2022/10/14 00:05:08;;;;;;;33.05;15.00;;;;;;;;;;2085306;28;20025;-72
2022/10/14 00:06:29;;;;;;;29.75;15.75;;;;;;;;;;2086874;28;20029;-73
2022/10/14 00:07:48;;;;;;;31.02;15.07;;;;;;;;;;2084240;28;20068;-73
2022/10/14 00:09:08;;;;;;;37.92;15.65;;;;;;;;;;2086866;28;20497;-73
2022/10/14 00:10:27;;;;;;;36.88;15.18;;;;;;;;;;2087088;28;20025;-73
2022/10/14 00:11:46;;;;;;;28.70;15.27;;;;;;;;;;2078365;28;20029;-72
2022/10/14 00:13:05;;;;;;;27.95;15.57;;;;;;;;;;2076519;28;20029;-73
2022/10/14 00:14:24;;;;;;;38.15;15.60;;;;;;;;;;2082929;28;20167;-73
2022/10/14 00:15:43;;;;;;;36.72;16.52;;;;;;;;;;2086299;28;22419;-72
2022/10/14 00:17:02;;;;;;;26.40;16.38;;;;;;;;;;2079923;28;20128;-73
2022/10/14 00:18:20;;;;;;;33.65;17.50;;;;;;;;;;2075986;28;20037;-73
2022/10/14 00:19:39;;;;;;;34.92;17.55;;;;;;;;;;2082827;28;20041;-72
2022/10/14 00:20:59;;;;;;;49.47;18.35;;;;;;;;;;2087353;28;20398;-72
2022/10/14 00:22:18;;;;;;;35.22;17.88;;;;;;;;;;2087262;28;20029;-72
2022/10/14 00:23:38;;;;;;;33.95;18.95;;;;;;;;;;2085559;28;20132;-73
2022/10/14 00:24:56;;;;;;;35.47;18.33;;;;;;;;;;2085959;28;20037;-72
2022/10/14 00:26:20;;;;;;;36.50;18.95;;;;;;;;;;2086337;28;20032;-73
2022/10/14 00:27:39;;;;;;;35.17;17.77;;;;;;;;;;2085195;28;20053;-73
2022/10/14 00:28:59;;;;;;;35.97;18.42;;;;;;;;;;2086266;28;20061;-72
2022/10/14 00:30:18;;;;;;;32.80;17.65;;;;;;;;;;2082757;28;20025;-73
2022/10/14 00:31:37;;;;;;;43.13;18.23;;;;;;;;;;2077767;28;20026;-72
2022/10/14 00:32:56;;;;;;;30.88;17.70;;;;;;;;;;2084814;28;20029;-72
2022/10/14 00:34:15;;;;;;;34.80;18.92;;;;;;;;;;2085886;28;20025;-72
2022/10/14 00:35:34;;;;;;;35.05;17.15;;;;;;;;;;2086215;28;20100;-75
2022/10/14 00:36:52;;;;;;;38.20;17.65;;;;;;;;;;2086647;28;20025;-72
2022/10/14 00:38:11;;;;;;;38.97;18.30;;;;;;;;;;2077400;28;20045;-73
2022/10/14 00:39:30;;;;;;;31.67;17.60;;;;;;;;;;2084927;28;20032;-75
2022/10/14 00:40:49;;;;;;;38.30;17.05;;;;;;;;;;2087972;28;20032;-72
2022/10/14 00:42:11;;;;;;;32.15;18.38;;;;;;;;;;2085445;28;20514;-74
2022/10/14 00:43:49;;;;;;;36.78;18.42;;;;;;;;;;2077689;28;20030;-75
2022/10/14 00:45:13;;;;;;;34.10;18.67;;;;;;;;;;2084017;28;20037;-72
2022/10/14 00:46:33;;;;;;;42.20;18.75;;;;;;;;;;2085206;28;20045;-73
2022/10/14 00:47:52;;;;;;;42.88;18.05;;;;;;;;;;2076135;28;20455;-72
2022/10/14 00:49:11;;;;;;;37.60;17.70;;;;;;;;;;2081152;28;20041;-73
2022/10/14 00:50:31;;;;;;;31.20;18.10;;;;;;;;;;2087052;28;20632;-72
2022/10/14 00:51:51;;;;;;;40.63;18.35;;;;;;;;;;2084872;28;20036;-72
2022/10/14 00:53:10;;;;;;;40.60;19.73;;;;;;;;;;2087496;28;20037;-73
2022/10/14 00:54:36;;;;;;;32.70;17.77;;;;;;;;;;2087560;28;20032;-72
2022/10/14 00:55:55;;;;;;;38.08;17.08;;;;;;;;;;2087981;28;20041;-73
2022/10/14 00:57:14;;;;;;;33.28;16.63;;;;;;;;;;2089450;28;20029;-72
2022/10/14 00:58:33;;;;;;;33.42;17.15;;;;;;;;;;2086251;28;20033;-72
2022/10/14 00:59:55;;;;;;;30.45;18.48;;;;;;;;;;2079554;28;20069;-73
2022/10/14 01:01:14;;;;;;;36.60;19.08;;;;;;;;;;2084735;28;20072;-72
2022/10/14 01:02:33;;;;;;;34.25;19.25;;;;;;;;;;2080316;28;20034;-72
2022/10/14 01:03:52;;;;;;;42.78;20.75;;;;;;;;;;2075531;28;20045;-71
2022/10/14 01:05:12;;;;;;;42.95;20.75;;;;;;;;;;2075631;28;20441;-73
2022/10/14 01:06:46;;;;;;;44.28;21.20;;;;;;;;;;2086453;28;20025;-72
2022/10/14 01:08:10;;;;;;;39.42;21.13;;;;;;;;;;2078310;28;20037;-72
2022/10/14 01:09:40;;;;;;;36.30;20.00;;;;;;;;;;2086175;28;20486;-72
2022/10/14 01:11:08;;;;;;;33.67;19.52;;;;;;;;;;2079576;28;20410;-73
2022/10/14 01:12:36;;;;;;;45.88;20.95;;;;;;;;;;2082623;28;20029;-72
2022/10/14 01:14:06;;;;;;;44.70;19.58;;;;;;;;;;2087538;28;20033;-74
2022/10/14 01:15:39;;;;;;;50.83;20.90;;;;;;;;;;2076412;28;20112;-72
2022/10/14 01:16:58;;;;;;;36.63;18.98;;;;;;;;;;2079199;28;20037;-71
2022/10/14 01:18:23;;;;;;;39.13;19.10;;;;;;;;;;2083502;28;20028;-75
2022/10/14 01:20:01;;;;;;;45.40;19.80;;;;;;;;;;2085843;28;20036;-73
2022/10/14 01:21:20;;;;;;;43.55;19.88;;;;;;;;;;2079660;28;20104;-72
2022/10/14 01:22:43;;;;;;;39.70;20.23;;;;;;;;;;2085253;28;20033;-72
2022/10/14 01:24:04;;;;;;;39.30;23.77;;;;;;;;;;2087500;28;20501;-73
2022/10/14 01:25:33;;;;;;;41.67;23.05;;;;;;;;;;2088544;28;20025;-74
2022/10/14 01:27:01;;;;;;;53.50;23.27;;;;;;;;;;2089293;28;20029;-72
2022/10/14 01:28:20;;;;;;;45.92;20.92;;;;;;;;;;2078611;28;20045;-72
2022/10/14 01:29:43;;;;;;;43.03;21.05;;;;;;;;;;2083981;28;20040;-73
2022/10/14 01:31:08;;;;;;;49.03;20.25;;;;;;;;;;2088914;28;20116;-73
2022/10/14 01:32:28;;;;;;;51.25;20.60;;;;;;;;;;2080327;28;20112;-73
2022/10/14 01:33:50;;;;;;;40.10;20.55;;;;;;;;;;2082077;28;20029;-73
2022/10/14 01:35:15;;;;;;;39.85;20.95;;;;;;;;;;2088513;28;21276;-72
2022/10/14 01:36:34;;;;;;;39.00;20.25;;;;;;;;;;2088216;28;20036;-76
2022/10/14 01:38:05;;;;;;;40.40;21.52;;;;;;;;;;2087717;28;20108;-72
2022/10/14 01:39:36;;;;;;;43.33;21.73;;;;;;;;;;2077774;28;20061;-73
2022/10/14 01:41:08;;;;;;;38.78;21.85;;;;;;;;;;2086074;28;20033;-73
2022/10/14 01:42:30;;;;;;;39.50;22.17;;;;;;;;;;2087914;28;20111;-74
2022/10/14 01:43:50;;;;;;;39.70;21.42;;;;;;;;;;2085595;28;20493;-73
2022/10/14 01:45:18;;;;;;;39.63;20.85;;;;;;;;;;2085979;28;20029;-72
2022/10/14 01:46:38;;;;;;;37.67;20.75;;;;;;;;;;2081770;28;20041;-73
2022/10/14 01:47:57;;;;;;;50.53;24.27;;;;;;;;;;2084882;28;20024;-73
2022/10/14 01:49:28;;;;;;;46.20;23.67;;;;;;;;;;2086978;28;20043;-73
2022/10/14 01:50:48;;;;;;;49.60;23.38;;;;;;;;;;2087944;28;20037;-74
2022/10/14 01:52:18;;;;;;;53.10;23.23;;;;;;;;;;2087432;28;20028;-72
2022/10/14 01:53:42;;;;;;;42.42;23.88;;;;;;;;;;2085555;28;20280;-74
2022/10/14 01:55:05;;;;;;;45.97;23.92;;;;;;;;;;2086883;28;20041;-72
2022/10/14 01:56:26;;;;;;;43.63;25.08;;;;;;;;;;2085718;28;21409;-73
2022/10/14 01:57:46;;;;;;;41.40;23.55;;;;;;;;;;2086946;28;20068;-74
2022/10/14 01:59:06;;;;;;;48.35;22.17;;;;;;;;;;2087669;28;20033;-73
2022/10/14 02:00:25;;;;;;;50.60;22.95;;;;;;;;;;2082731;28;20048;-73
2022/10/14 02:01:44;;;;;;;46.53;22.80;;;;;;;;;;2086933;28;20037;-73
2022/10/14 02:03:03;;;;;;;47.40;22.65;;;;;;;;;;2088733;28;20037;-73
2022/10/14 02:04:22;;;;;;;40.40;20.33;;;;;;;;;;2076855;28;20025;-73
2022/10/14 02:05:48;;;;;;;51.28;21.38;;;;;;;;;;2074367;28;20080;-72
2022/10/14 02:07:08;;;;;;;45.13;21.75;;;;;;;;;;2084998;28;20067;-73
2022/10/14 02:08:32;;;;;;;42.22;22.65;;;;;;;;;;2078857;28;20033;-73
2022/10/14 02:10:30;;;;;;;40.10;23.83;;;;;;;;;;2083748;28;20026;-74
2022/10/14 02:12:09;;;;;;;49.78;21.95;;;;;;;;;;2054159;28;20030;-72
2022/10/14 02:13:33;;;;;;;45.60;21.30;;;;;;;;;;2058586;28;20508;-74
2022/10/14 02:15:01;;;;;;;41.40;20.50;;;;;;;;;;2060820;28;20038;-74
2022/10/14 02:16:29;;;;;;;40.70;20.38;;;;;;;;;;2060716;28;20039;-76
2022/10/14 02:17:48;;;;;;;41.13;21.20;;;;;;;;;;2087986;28;20510;-72
2022/10/14 02:19:22;;;;;;;45.95;22.20;;;;;;;;;;2088957;28;20029;-75
2022/10/14 02:20:48;;;;;;;42.20;22.67;;;;;;;;;;2087861;28;20069;-73
2022/10/14 02:22:12;;;;;;;49.70;25.55;;;;;;;;;;2084564;28;20036;-72
2022/10/14 02:23:37;;;;;;;47.03;24.80;;;;;;;;;;2086190;28;20448;-72
2022/10/14 02:24:59;;;;;;;45.35;25.42;;;;;;;;;;2085683;28;20431;-73
2022/10/14 02:26:18;;;;;;;43.88;24.38;;;;;;;;;;2086595;28;20491;-73
2022/10/14 02:27:37;;;;;;;36.90;21.27;;;;;;;;;;2078258;28;20112;-73
2022/10/14 02:28:57;;;;;;;36.28;21.00;;;;;;;;;;2076693;28;20033;-73
2022/10/14 02:30:16;;;;;;;37.58;22.30;;;;;;;;;;2081834;28;20029;-72
2022/10/14 02:31:36;;;;;;;38.80;23.08;;;;;;;;;;2086908;28;20060;-72
2022/10/14 02:32:57;;;;;;;43.85;21.67;;;;;;;;;;2079911;28;20025;-77
2022/10/14 02:34:18;;;;;;;44.95;22.00;;;;;;;;;;2083281;28;20033;-73
2022/10/14 02:35:39;;;;;;;43.38;19.92;;;;;;;;;;2085219;28;20041;-72
2022/10/14 02:36:58;;;;;;;43.88;20.05;;;;;;;;;;2087768;28;20013;-72
2022/10/14 02:38:18;;;;;;;42.08;20.10;;;;;;;;;;2080117;28;20033;-72
2022/10/14 02:39:41;;;;;;;36.15;19.55;;;;;;;;;;2075539;28;20014;-72
2022/10/14 02:41:01;;;;;;;38.15;20.38;;;;;;;;;;2076671;28;20033;-74
2022/10/14 02:42:20;;;;;;;48.35;20.40;;;;;;;;;;2077082;28;20025;-73
2022/10/14 02:43:39;;;;;;;45.88;22.63;;;;;;;;;;2082015;28;20029;-72
2022/10/14 02:44:59;;;;;;;41.17;22.25;;;;;;;;;;2079158;28;20386;-72
2022/10/14 02:46:20;;;;;;;38.95;21.33;;;;;;;;;;2082041;28;20040;-72
2022/10/14 02:47:39;;;;;;;48.22;21.98;;;;;;;;;;2087736;28;20054;-73
2022/10/14 02:48:57;;;;;;;39.90;20.42;;;;;;;;;;2088087;28;20033;-73
2022/10/14 02:50:17;;;;;;;40.55;20.77;;;;;;;;;;2085583;28;20048;-74
2022/10/14 02:51:37;;;;;;;40.90;19.45;;;;;;;;;;2087809;28;20481;-73
2022/10/14 02:52:56;;;;;;;43.72;19.65;;;;;;;;;;2086730;28;20041;-73
2022/10/14 02:54:15;;;;;;;38.40;19.73;;;;;;;;;;2086937;28;20029;-74
2022/10/14 02:55:34;;;;;;;38.45;19.15;;;;;;;;;;2084960;28;20037;-75
2022/10/14 02:56:52;;;;;;;37.25;19.55;;;;;;;;;;2088994;28;20394;-73
2022/10/14 02:58:11;;;;;;;37.25;19.40;;;;;;;;;;2087582;28;20494;-74
2022/10/14 02:59:30;;;;;;;39.22;18.38;;;;;;;;;;2085978;28;20025;-76
2022/10/14 03:00:49;;;;;;;31.77;17.63;;;;;;;;;;2081735;28;20032;-73
2022/10/14 03:02:08;;;;;;;42.97;19.85;;;;;;;;;;2085384;28;20100;-74
2022/10/14 03:03:27;;;;;;;36.72;18.92;;;;;;;;;;2087751;28;20498;-73
2022/10/14 03:04:46;;;;;;;39.70;20.20;;;;;;;;;;2087166;28;20526;-73
2022/10/14 03:06:05;;;;;;;40.40;20.13;;;;;;;;;;2087755;28;20029;-72
2022/10/14 03:07:24;;;;;;;41.50;20.35;;;;;;;;;;2087485;28;20021;-73
2022/10/14 03:08:43;;;;;;;42.20;21.60;;;;;;;;;;2088174;28;20037;-74
2022/10/14 03:10:02;;;;;;;37.65;20.20;;;;;;;;;;2079524;28;20437;-73
2022/10/14 03:11:21;;;;;;;37.65;21.05;;;;;;;;;;2083710;28;20037;-73
2022/10/14 03:12:40;;;;;;;42.70;22.02;;;;;;;;;;2088815;28;20020;-73
2022/10/14 03:13:59;;;;;;;43.03;22.23;;;;;;;;;;2085912;28;20021;-73
2022/10/14 03:15:18;;;;;;;41.67;21.48;;;;;;;;;;2085481;28;20385;-72
2022/10/14 03:16:37;;;;;;;39.78;22.55;;;;;;;;;;2086235;28;20482;-73
2022/10/14 03:17:56;;;;;;;44.08;23.35;;;;;;;;;;2084053;28;20045;-73
2022/10/14 03:19:15;;;;;;;43.80;22.63;;;;;;;;;;2087711;28;20029;-73
2022/10/14 03:20:34;;;;;;;49.35;22.77;;;;;;;;;;2078930;28;20029;-73
2022/10/14 03:21:53;;;;;;;51.88;24.67;;;;;;;;;;2078780;28;20658;-73
2022/10/14 03:23:13;;;;;;;50.75;25.88;;;;;;;;;;2075499;28;20030;-74
2022/10/14 03:24:32;;;;;;;45.60;25.23;;;;;;;;;;2083431;28;20111;-73
2022/10/14 03:25:51;;;;;;;51.40;28.35;;;;;;;;;;2086059;28;20036;-74
2022/10/14 03:27:10;;;;;;;38.75;24.65;;;;;;;;;;2087809;28;20029;-74
2022/10/14 03:28:29;;;;;;;44.78;24.30;;;;;;;;;;2086703;28;20108;-73
2022/10/14 03:29:48;;;;;;;42.63;23.65;;;;;;;;;;2084404;28;20037;-72
2022/10/14 03:31:07;;;;;;;44.47;24.73;;;;;;;;;;2085618;28;20049;-73
2022/10/14 03:32:25;;;;;;;45.67;24.33;;;;;;;;;;2076138;28;20061;-74
2022/10/14 03:33:44;;;;;;;49.78;26.77;;;;;;;;;;2081256;28;20033;-73
2022/10/14 03:35:03;;;;;;;55.10;27.27;;;;;;;;;;2086732;28;20025;-73
2022/10/14 03:36:22;;;;;;;49.50;25.42;;;;;;;;;;2078755;28;20120;-73
2022/10/14 03:37:41;;;;;;;46.42;24.10;;;;;;;;;;2076319;28;20029;-74
2022/10/14 03:39:00;;;;;;;39.65;23.30;;;;;;;;;;2083608;28;20052;-73
2022/10/14 03:40:19;;;;;;;43.83;22.42;;;;;;;;;;2079033;28;20065;-73
2022/10/14 03:41:38;;;;;;;43.33;22.65;;;;;;;;;;2081678;28;20503;-73
2022/10/14 03:42:59;;;;;;;47.70;23.35;;;;;;;;;;2087697;28;20084;-73
2022/10/14 03:44:17;;;;;;;48.28;22.17;;;;;;;;;;2077045;28;20045;-73
2022/10/14 03:45:36;;;;;;;39.80;20.80;;;;;;;;;;2080863;28;20025;-76
2022/10/14 03:46:56;;;;;;;45.35;21.75;;;;;;;;;;2087801;28;20041;-73
2022/10/14 03:48:15;;;;;;;38.03;21.40;;;;;;;;;;2077869;28;20018;-73
2022/10/14 03:49:33;;;;;;;40.47;20.42;;;;;;;;;;2079122;28;20056;-74
2022/10/14 03:50:52;;;;;;;34.75;20.98;;;;;;;;;;2086067;28;20486;-74
2022/10/14 03:52:11;;;;;;;37.53;21.75;;;;;;;;;;2085137;28;20032;-73
2022/10/14 03:53:30;;;;;;;38.45;20.45;;;;;;;;;;2087152;28;20025;-76
2022/10/14 03:54:49;;;;;;;42.75;19.98;;;;;;;;;;2087738;28;20148;-73
2022/10/14 03:56:08;;;;;;;35.90;19.98;;;;;;;;;;2086416;28;20064;-74
2022/10/14 03:57:27;;;;;;;40.20;21.33;;;;;;;;;;2086709;28;20033;-73
2022/10/14 03:58:46;;;;;;;45.20;21.77;;;;;;;;;;2079735;28;20045;-73
2022/10/14 04:00:05;;;;;;;42.15;22.50;;;;;;;;;;2080135;28;20032;-73
2022/10/14 04:01:25;;;;;;;44.05;24.25;;;;;;;;;;2083801;28;20040;-73
2022/10/14 04:02:44;;;;;;;54.13;26.25;;;;;;;;;;2080148;28;20056;-73
2022/10/14 04:04:02;;;;;;;46.38;26.88;;;;;;;;;;2082527;28;20049;-74
2022/10/14 04:05:22;;;;;;;47.25;26.25;;;;;;;;;;2087352;28;20037;-73
2022/10/14 04:06:41;;;;;;;44.35;24.52;;;;;;;;;;2087001;28;20029;-74
2022/10/14 04:08:00;;;;;;;39.15;22.20;;;;;;;;;;2086746;28;20486;-73
2022/10/14 04:09:19;;;;;;;47.17;23.48;;;;;;;;;;2087266;28;20029;-75
2022/10/14 04:10:38;;;;;;;42.45;23.30;;;;;;;;;;2077722;28;20026;-73
2022/10/14 04:11:57;;;;;;;43.00;22.52;;;;;;;;;;2081247;28;20562;-73
2022/10/14 04:13:16;;;;;;;39.97;22.02;;;;;;;;;;2077374;28;20105;-73
2022/10/14 04:14:34;;;;;;;38.20;22.08;;;;;;;;;;2073770;28;20030;-73
2022/10/14 04:15:53;;;;;;;39.05;22.45;;;;;;;;;;2072075;28;20037;-73
2022/10/14 04:17:12;;;;;;;41.95;22.42;;;;;;;;;;2082313;28;20490;-74
2022/10/14 04:18:31;;;;;;;44.60;23.60;;;;;;;;;;2078906;28;20030;-73
2022/10/14 04:19:50;;;;;;;39.03;22.35;;;;;;;;;;2080995;28;20037;-73
2022/10/14 04:21:10;;;;;;;42.20;21.25;;;;;;;;;;2086177;28;20037;-73
2022/10/14 04:22:30;;;;;;;41.40;20.23;;;;;;;;;;2085713;28;20036;-73
2022/10/14 04:23:49;;;;;;;38.53;18.50;;;;;;;;;;2084954;28;20025;-73
2022/10/14 04:25:08;;;;;;;37.22;19.05;;;;;;;;;;2076456;28;20108;-73
2022/10/14 04:26:27;;;;;;;36.13;18.88;;;;;;;;;;2082365;28;20033;-74
2022/10/14 04:27:46;;;;;;;39.00;19.70;;;;;;;;;;2075374;28;20471;-76
2022/10/14 04:29:05;;;;;;;35.53;18.33;;;;;;;;;;2075562;28;20033;-73
2022/10/14 04:30:24;;;;;;;30.42;18.75;;;;;;;;;;2080007;28;20036;-73
2022/10/14 04:31:43;;;;;;;32.85;17.88;;;;;;;;;;2085821;28;20032;-73
2022/10/14 04:33:02;;;;;;;30.63;18.30;;;;;;;;;;2077396;28;20042;-74
2022/10/14 04:34:21;;;;;;;41.75;19.45;;;;;;;;;;2080650;28;20111;-74
2022/10/14 04:35:40;;;;;;;28.77;18.70;;;;;;;;;;2085279;28;20021;-73
2022/10/14 04:36:59;;;;;;;39.13;19.58;;;;;;;;;;2085333;28;20402;-73
2022/10/14 04:38:18;;;;;;;34.25;18.90;;;;;;;;;;2087436;28;20067;-73
2022/10/14 04:39:37;;;;;;;36.88;17.88;;;;;;;;;;2085017;28;20026;-78
2022/10/14 04:40:56;;;;;;;33.42;18.38;;;;;;;;;;2076489;28;20403;-74
2022/10/14 04:42:15;;;;;;;28.58;18.40;;;;;;;;;;2074183;28;20120;-73
2022/10/14 04:43:34;;;;;;;33.65;17.77;;;;;;;;;;2081815;28;20037;-74
2022/10/14 04:44:53;;;;;;;32.40;17.48;;;;;;;;;;2085228;28;20020;-78
2022/10/14 04:46:12;;;;;;;34.30;17.20;;;;;;;;;;2086826;28;20048;-75
2022/10/14 04:47:31;;;;;;;37.28;19.40;;;;;;;;;;2085834;28;20033;-78
2022/10/14 04:48:50;;;;;;;29.75;17.33;;;;;;;;;;2087780;28;20021;-78
2022/10/14 04:50:09;;;;;;;35.05;17.45;;;;;;;;;;2078149;28;20037;-75
2022/10/14 04:51:28;;;;;;;35.50;17.98;;;;;;;;;;2083679;28;20025;-73
2022/10/14 04:52:47;;;;;;;34.63;18.42;;;;;;;;;;2078281;28;20033;-74
2022/10/14 04:54:06;;;;;;;30.08;17.77;;;;;;;;;;2073703;28;20033;-76
2022/10/14 04:55:25;;;;;;;36.30;16.77;;;;;;;;;;2082781;28;20025;-72
2022/10/14 04:56:44;;;;;;;28.95;17.83;;;;;;;;;;2076544;28;20033;-72
2022/10/14 04:58:03;;;;;;;28.90;17.60;;;;;;;;;;2083107;28;20068;-72
2022/10/14 04:59:21;;;;;;;30.90;17.88;;;;;;;;;;2085912;28;20037;-72
2022/10/14 05:00:41;;;;;;;26.50;16.00;;;;;;;;;;2085361;28;20029;-72
2022/10/14 05:01:59;;;;;;;30.67;16.55;;;;;;;;;;2079365;28;20037;-73
2022/10/14 05:03:18;;;;;;;25.45;16.35;;;;;;;;;;2082891;28;20041;-74
2022/10/14 05:04:37;;;;;;;27.85;16.60;;;;;;;;;;2076992;28;20033;-74
2022/10/14 05:05:57;;;;;;;30.45;16.85;;;;;;;;;;2072924;28;20026;-74
2022/10/14 05:07:16;;;;;;;26.17;16.92;;;;;;;;;;2074787;28;20503;-75
2022/10/14 05:08:35;;;;;;;30.48;16.15;;;;;;;;;;2083557;28;20489;-75
2022/10/14 05:09:54;;;;;;;27.90;16.75;;;;;;;;;;2076084;28;20036;-75
2022/10/14 05:11:13;;;;;;;26.27;15.82;;;;;;;;;;2083207;28;20103;-74
2022/10/14 05:12:32;;;;;;;24.70;17.42;;;;;;;;;;2087129;28;20034;-76
2022/10/14 05:13:51;;;;;;;30.80;17.73;;;;;;;;;;2076597;28;20041;-75
2022/10/14 05:15:11;;;;;;;34.30;17.80;;;;;;;;;;2081970;28;20108;-74
2022/10/14 05:16:30;;;;;;;38.08;19.77;;;;;;;;;;2085354;28;20104;-75
2022/10/14 05:17:49;;;;;;;33.65;21.23;;;;;;;;;;2075859;28;20041;-74
2022/10/14 05:19:08;;;;;;;34.53;21.20;;;;;;;;;;2082797;28;20032;-74
2022/10/14 05:20:27;;;;;;;37.60;21.65;;;;;;;;;;2086204;28;20033;-75
2022/10/14 05:21:46;;;;;;;43.25;21.20;;;;;;;;;;2077356;28;20041;-75
2022/10/14 05:23:05;;;;;;;36.28;20.33;;;;;;;;;;2081392;28;20037;-74
2022/10/14 05:24:23;;;;;;;33.15;19.70;;;;;;;;;;2085503;28;20425;-73
2022/10/14 05:25:42;;;;;;;33.83;20.00;;;;;;;;;;2087231;28;20490;-74
2022/10/14 05:27:01;;;;;;;34.65;20.20;;;;;;;;;;2085087;28;20514;-74
2022/10/14 05:28:20;;;;;;;29.40;19.25;;;;;;;;;;2086189;28;20037;-74
2022/10/14 05:29:39;;;;;;;36.47;21.55;;;;;;;;;;2084253;28;20018;-78
2022/10/14 05:30:58;;;;;;;38.33;21.08;;;;;;;;;;2075327;28;20034;-73
2022/10/14 05:32:17;;;;;;;42.80;21.70;;;;;;;;;;2077356;28;20030;-74
2022/10/14 05:33:36;;;;;;;32.92;20.67;;;;;;;;;;2078385;28;20037;-77
2022/10/14 05:34:55;;;;;;;37.63;21.38;;;;;;;;;;2082919;28;20112;-75
2022/10/14 05:36:14;;;;;;;49.10;22.88;;;;;;;;;;2084781;28;20029;-75
2022/10/14 05:37:33;;;;;;;42.58;23.83;;;;;;;;;;2083437;28;20025;-74
2022/10/14 05:38:55;;;;;;;46.20;20.75;;;;;;;;;;2084408;28;20040;-74
2022/10/14 05:40:14;;;;;;;39.95;22.27;;;;;;;;;;2086077;28;20036;-77
2022/10/14 05:41:33;;;;;;;40.58;23.17;;;;;;;;;;2085624;28;20528;-74
2022/10/14 05:42:51;;;;;;;34.28;20.63;;;;;;;;;;2079236;28;20033;-74
2022/10/14 05:44:10;;;;;;;39.17;23.02;;;;;;;;;;2083910;28;20632;-75
2022/10/14 05:45:29;;;;;;;36.13;21.70;;;;;;;;;;2077078;28;20025;-73
2022/10/14 05:46:48;;;;;;;43.83;21.83;;;;;;;;;;2085516;28;20045;-74
2022/10/14 05:48:07;;;;;;;35.28;21.85;;;;;;;;;;2088270;28;20029;-75
2022/10/14 05:49:26;;;;;;;43.20;24.55;;;;;;;;;;2085347;28;20395;-75
2022/10/14 05:50:45;;;;;;;39.03;21.70;;;;;;;;;;2087802;28;20028;-74
2022/10/14 05:52:04;;;;;;;35.33;20.13;;;;;;;;;;2080778;28;20168;-74
2022/10/14 05:53:22;;;;;;;32.72;21.40;;;;;;;;;;2083416;28;20032;-79
2022/10/14 05:54:42;;;;;;;38.28;21.55;;;;;;;;;;2087576;28;20085;-75
2022/10/14 05:56:01;;;;;;;47.20;24.15;;;;;;;;;;2078287;28;20038;-73
2022/10/14 05:57:20;;;;;;;39.88;21.48;;;;;;;;;;2078594;28;20041;-75
2022/10/14 05:58:40;;;;;;;43.83;24.45;;;;;;;;;;2085076;28;20053;-74
2022/10/14 05:59:59;;;;;;;33.72;22.55;;;;;;;;;;2079608;28;20030;-72
2022/10/14 06:01:18;;;;;;;34.83;21.85;;;;;;;;;;2085496;28;20037;-73
2022/10/14 06:02:37;;;;;;;39.70;22.73;;;;;;;;;;2088179;28;20033;-72
2022/10/14 06:03:56;;;;;;;43.50;23.40;;;;;;;;;;2074968;28;20482;-74
2022/10/14 06:05:16;;;;;;;41.33;23.38;;;;;;;;;;2076616;28;20104;-78
2022/10/14 06:06:35;;;;;;;41.47;22.33;;;;;;;;;;2075299;28;20030;-74
2022/10/14 06:07:53;;;;;;;33.10;20.17;;;;;;;;;;2075493;28;20030;-74
2022/10/14 06:09:12;;;;;;;38.10;20.98;;;;;;;;;;2083381;28;20129;-74
2022/10/14 06:10:31;;;;;;;32.03;19.08;;;;;;;;;;2080444;28;20112;-77
2022/10/14 06:11:50;;;;;;;38.58;19.65;;;;;;;;;;2085983;28;20025;-75
2022/10/14 06:13:09;;;;;;;33.92;19.98;;;;;;;;;;2088121;28;20077;-74
2022/10/14 06:14:28;;;;;;;41.28;21.63;;;;;;;;;;2086982;28;20041;-73
2022/10/14 06:15:47;;;;;;;38.88;22.92;;;;;;;;;;2087012;28;20453;-75
2022/10/14 06:17:06;;;;;;;48.78;26.30;;;;;;;;;;2088921;28;20029;-74
2022/10/14 06:18:25;;;;;;;45.78;24.95;;;;;;;;;;2080416;28;20117;-74
2022/10/14 06:19:44;;;;;;;44.78;24.92;;;;;;;;;;2083697;28;20029;-74
2022/10/14 06:21:04;;;;;;;36.50;23.48;;;;;;;;;;2078765;28;20474;-74
2022/10/14 06:22:22;;;;;;;40.13;24.27;;;;;;;;;;2077119;28;20034;-74
2022/10/14 06:23:41;;;;;;;45.63;23.83;;;;;;;;;;2075742;28;20042;-75
2022/10/14 06:25:00;;;;;;;35.17;22.98;;;;;;;;;;2084137;28;20025;-74
2022/10/14 06:26:19;;;;;;;30.58;21.55;;;;;;;;;;2079589;28;20510;-74
2022/10/14 06:27:38;;;;;;;35.88;19.65;;;;;;;;;;2074556;28;20101;-76
2022/10/14 06:28:57;;;;;;;33.78;18.40;;;;;;;;;;2072431;28;20104;-79
2022/10/14 06:30:16;;;;;;;34.53;21.13;;;;;;;;;;2068940;28;20038;-76
2022/10/14 06:31:34;;;;;;;30.27;19.23;;;;;;;;;;2081399;28;20875;-74
2022/10/14 06:32:53;;;;;;;31.42;20.33;;;;;;;;;;2082669;28;20033;-74
2022/10/14 06:34:12;;;;;;;29.98;20.50;;;;;;;;;;2088062;28;20090;-74
2022/10/14 06:35:31;;;;;;;34.47;20.58;;;;;;;;;;2076102;28;20045;-74
2022/10/14 06:36:50;;;;;;;35.45;20.58;;;;;;;;;;2076470;28;20038;-74
2022/10/14 06:38:09;;;;;;;32.92;20.27;;;;;;;;;;2085214;28;20104;-75
2022/10/14 06:39:28;;;;;;;31.20;20.42;;;;;;;;;;2084515;28;20492;-74
2022/10/14 06:40:50;;;;;;;38.85;21.98;;;;;;;;;;2080033;28;20037;-74
2022/10/14 06:42:09;;;;;;;39.42;22.33;;;;;;;;;;2085390;28;20417;-75
2022/10/14 06:43:28;;;;;;;36.75;22.33;;;;;;;;;;2088482;28;20033;-73
2022/10/14 06:44:47;;;;;;;33.28;23.60;;;;;;;;;;2088472;28;20481;-75
2022/10/14 06:46:06;;;;;;;40.42;22.42;;;;;;;;;;2085795;28;20120;-75
2022/10/14 06:47:25;;;;;;;39.03;22.77;;;;;;;;;;2079252;28;20032;-75
2022/10/14 06:48:44;;;;;;;39.38;22.65;;;;;;;;;;2074354;28;20152;-76
2022/10/14 06:50:04;;;;;;;37.50;23.70;;;;;;;;;;2070373;28;20052;-75
2022/10/14 06:51:23;;;;;;;42.58;23.92;;;;;;;;;;2078339;28;20389;-74
2022/10/14 06:52:43;;;;;;;43.95;25.33;;;;;;;;;;2087703;28;20132;-74
2022/10/14 06:54:03;;;;;;;42.72;26.38;;;;;;;;;;2085563;28;20486;-75
2022/10/14 06:55:21;;;;;;;52.50;27.33;;;;;;;;;;2079628;28;20061;-73
2022/10/14 06:56:40;;;;;;;46.47;29.05;;;;;;;;;;2074112;28;20033;-75
2022/10/14 06:58:00;;;;;;;52.92;28.90;;;;;;;;;;2085370;28;20029;-73
2022/10/14 06:59:19;;;;;;;57.75;30.88;;;;;;;;;;2076891;28;20430;-74
2022/10/14 07:00:37;;;;;;;50.17;29.05;;;;;;;;;;2079724;28;20037;-76
2022/10/14 07:01:56;;;;;;;57.97;30.00;;;;;;;;;;2083122;28;20048;-76
2022/10/14 07:03:15;;;;;;;43.40;24.13;;;;;;;;;;2088411;28;20036;-74
2022/10/14 07:04:34;;;;;;;42.40;23.52;;;;;;;;;;2077814;28;20037;-75
2022/10/14 07:05:53;;;;;;;39.38;23.17;;;;;;;;;;2084590;28;20029;-77
2022/10/14 07:07:12;;;;;;;35.85;21.67;;;;;;;;;;2086586;28;20033;-74
2022/10/14 07:08:31;;;;;;;38.70;21.30;;;;;;;;;;2088948;28;20488;-73
2022/10/14 07:09:50;;;;;;;34.80;20.95;;;;;;;;;;2079101;28;20030;-74
2022/10/14 07:11:08;;;;;;;32.78;20.00;;;;;;;;;;2084533;28;20445;-74
2022/10/14 07:12:28;;;;;;;38.30;20.95;;;;;;;;;;2072185;28;20034;-74
2022/10/14 07:13:46;;;;;;;35.70;20.35;;;;;;;;;;2076270;28;20510;-74
2022/10/14 07:15:05;;;;;;;32.63;21.15;;;;;;;;;;2081713;28;20064;-75
2022/10/14 07:16:25;;;;;;;37.03;20.30;;;;;;;;;;2085944;28;21678;-73
2022/10/14 07:17:44;;;;;;;37.50;20.65;;;;;;;;;;2086378;28;20100;-74
2022/10/14 07:19:03;;;;;;;43.08;20.38;;;;;;;;;;2087669;28;20037;-74
2022/10/14 07:20:22;;;;;;;48.45;22.55;;;;;;;;;;2088594;28;20498;-73
2022/10/14 07:21:41;;;;;;;39.10;22.55;;;;;;;;;;2086702;28;20036;-75
2022/10/14 07:23:01;;;;;;;34.30;22.75;;;;;;;;;;2088123;28;20029;-74
2022/10/14 07:24:20;;;;;;;42.30;22.33;;;;;;;;;;2085125;28;20036;-76
2022/10/14 07:25:39;;;;;;;42.90;22.77;;;;;;;;;;2086748;28;20405;-75
2022/10/14 07:26:58;;;;;;;46.08;23.25;;;;;;;;;;2087982;28;20467;-74
2022/10/14 07:28:17;;;;;;;31.02;19.27;;;;;;;;;;2079306;28;20041;-74
2022/10/14 07:29:36;;;;;;;31.70;20.35;;;;;;;;;;2073171;28;20037;-76
2022/10/14 07:31:04;;;;;;;36.58;22.27;;;;;;;;;;2080953;28;20486;-74
2022/10/14 07:32:23;;;;;;;38.15;23.55;;;;;;;;;;2079083;28;20383;-74
2022/10/14 07:33:42;;;;;;;33.75;20.00;;;;;;;;;;2075131;28;20033;-74
2022/10/14 07:35:01;;;;;;;30.05;21.00;;;;;;;;;;2083630;28;20446;-74
2022/10/14 07:36:21;;;;;;;29.52;19.48;;;;;;;;;;2080081;28;20407;-74
2022/10/14 07:37:39;;;;;;;31.80;18.48;;;;;;;;;;2083063;28;20203;-75
2022/10/14 07:38:59;;;;;;;27.88;18.05;;;;;;;;;;2088685;28;20072;-75
2022/10/14 07:40:18;;;;;;;36.72;18.65;;;;;;;;;;2086540;28;20494;-75
2022/10/14 07:41:37;;;;;;;28.48;17.48;;;;;;;;;;2078321;28;20029;-75
2022/10/14 07:42:56;;;;;;;32.28;17.55;;;;;;;;;;2082665;28;20462;-74
2022/10/14 07:44:16;;;;;;;26.85;16.80;;;;;;;;;;2087744;28;20037;-75
2022/10/14 07:45:38;;;;;;;28.55;15.25;;;;;;;;;;2085581;28;20029;-74
2022/10/14 07:46:58;;;;;;;25.05;15.05;;;;;;;;;;2087594;28;20456;-75